sensor_id;sensor_type;location;lat;lon;timestamp;temperature;humidity
27797;DHT22;15177;50.844;4.412;2022-07-29T00:00:39;20.50;92.30
27797;DHT22;15177;50.844;4.412;2022-07-29T00:03:05;20.50;92.80
27797;DHT22;15177;50.844;4.412;2022-07-29T00:05:31;20.60;92.60
27797;DHT22;15177;50.844;4.412;2022-07-29T00:07:57;20.60;92.60
27797;DHT22;15177;50.844;4.412;2022-07-29T00:10:22;20.50;93.00
27797;DHT22;15177;50.844;4.412;2022-07-29T00:12:49;20.50;93.40
27797;DHT22;15177;50.844;4.412;2022-07-29T00:15:15;20.50;93.30
27797;DHT22;15177;50.844;4.412;2022-07-29T00:17:40;20.50;93.60
27797;DHT22;15177;50.844;4.412;2022-07-29T00:20:08;20.50;93.50
27797;DHT22;15177;50.844;4.412;2022-07-29T00:22:37;20.40;94.00
27797;DHT22;15177;50.844;4.412;2022-07-29T00:25:04;20.30;94.10
27797;DHT22;15177;50.844;4.412;2022-07-29T00:27:30;20.40;94.20
27797;DHT22;15177;50.844;4.412;2022-07-29T00:29:56;20.20;94.70
27797;DHT22;15177;50.844;4.412;2022-07-29T00:32:23;20.10;95.00
27797;DHT22;15177;50.844;4.412;2022-07-29T00:34:49;20.10;95.20
27797;DHT22;15177;50.844;4.412;2022-07-29T00:37:26;20.10;95.40
27797;DHT22;15177;50.844;4.412;2022-07-29T00:39:51;20.20;95.30
27797;DHT22;15177;50.844;4.412;2022-07-29T00:42:17;20.20;95.50
27797;DHT22;15177;50.844;4.412;2022-07-29T00:44:44;20.20;95.50
27797;DHT22;15177;50.844;4.412;2022-07-29T00:47:11;20.10;95.80
27797;DHT22;15177;50.844;4.412;2022-07-29T00:49:39;20.10;95.80
27797;DHT22;15177;50.844;4.412;2022-07-29T00:52:06;20.00;96.20
27797;DHT22;15177;50.844;4.412;2022-07-29T00:54:33;20.10;96.20
27797;DHT22;15177;50.844;4.412;2022-07-29T00:56:59;20.10;96.30
27797;DHT22;15177;50.844;4.412;2022-07-29T00:59:28;20.00;96.50
27797;DHT22;15177;50.844;4.412;2022-07-29T01:01:54;20.00;96.70
27797;DHT22;15177;50.844;4.412;2022-07-29T01:04:21;19.90;97.00
27797;DHT22;15177;50.844;4.412;2022-07-29T01:06:48;19.80;97.60
27797;DHT22;15177;50.844;4.412;2022-07-29T01:09:17;19.90;97.30
27797;DHT22;15177;50.844;4.412;2022-07-29T01:11:43;19.80;97.40
27797;DHT22;15177;50.844;4.412;2022-07-29T01:14:11;19.90;97.40
27797;DHT22;15177;50.844;4.412;2022-07-29T01:16:45;19.70;97.80
27797;DHT22;15177;50.844;4.412;2022-07-29T01:22:08;19.60;98.50
27797;DHT22;15177;50.844;4.412;2022-07-29T01:29:57;19.50;99.00
27797;DHT22;15177;50.844;4.412;2022-07-29T01:32:29;19.40;99.20
27797;DHT22;15177;50.844;4.412;2022-07-29T01:35:15;19.50;99.30
27797;DHT22;15177;50.844;4.412;2022-07-29T01:37:50;19.50;99.30
27797;DHT22;15177;50.844;4.412;2022-07-29T01:40:21;19.60;99.10
27797;DHT22;15177;50.844;4.412;2022-07-29T01:42:54;19.70;99.20
27797;DHT22;15177;50.844;4.412;2022-07-29T01:48:06;19.70;99.20
27797;DHT22;15177;50.844;4.412;2022-07-29T01:50:50;19.70;99.20
27797;DHT22;15177;50.844;4.412;2022-07-29T01:53:42;19.60;99.40
27797;DHT22;15177;50.844;4.412;2022-07-29T01:56:10;19.60;99.40
27797;DHT22;15177;50.844;4.412;2022-07-29T01:58:40;19.60;99.40
27797;DHT22;15177;50.844;4.412;2022-07-29T02:01:06;19.40;99.80
27797;DHT22;15177;50.844;4.412;2022-07-29T02:03:35;19.30;99.90
27797;DHT22;15177;50.844;4.412;2022-07-29T02:06:04;19.30;99.90
27797;DHT22;15177;50.844;4.412;2022-07-29T02:08:32;19.30;99.90
27797;DHT22;15177;50.844;4.412;2022-07-29T02:11:00;19.20;99.90
27797;DHT22;15177;50.844;4.412;2022-07-29T02:13:28;19.30;99.90
27797;DHT22;15177;50.844;4.412;2022-07-29T02:15:57;19.30;99.90
27797;DHT22;15177;50.844;4.412;2022-07-29T02:18:23;19.20;99.90
27797;DHT22;15177;50.844;4.412;2022-07-29T02:20:54;19.20;99.90
27797;DHT22;15177;50.844;4.412;2022-07-29T02:23:23;19.20;99.90
27797;DHT22;15177;50.844;4.412;2022-07-29T02:25:51;19.20;99.90
27797;DHT22;15177;50.844;4.412;2022-07-29T02:28:19;19.10;99.90
27797;DHT22;15177;50.844;4.412;2022-07-29T02:30:46;19.10;99.90
27797;DHT22;15177;50.844;4.412;2022-07-29T02:33:15;19.00;99.90
27797;DHT22;15177;50.844;4.412;2022-07-29T02:35:45;19.00;99.90
27797;DHT22;15177;50.844;4.412;2022-07-29T02:38:15;19.10;99.90
27797;DHT22;15177;50.844;4.412;2022-07-29T02:40:53;19.00;99.90
27797;DHT22;15177;50.844;4.412;2022-07-29T02:43:21;19.00;99.90
27797;DHT22;15177;50.844;4.412;2022-07-29T02:45:52;19.00;99.90
27797;DHT22;15177;50.844;4.412;2022-07-29T02:48:22;18.90;99.90
27797;DHT22;15177;50.844;4.412;2022-07-29T02:50:53;19.00;99.90
27797;DHT22;15177;50.844;4.412;2022-07-29T02:53:23;19.00;99.90
27797;DHT22;15177;50.844;4.412;2022-07-29T02:56:03;19.00;99.90
27797;DHT22;15177;50.844;4.412;2022-07-29T02:58:34;18.90;99.90
27797;DHT22;15177;50.844;4.412;2022-07-29T03:01:14;18.80;99.90
27797;DHT22;15177;50.844;4.412;2022-07-29T03:03:45;18.90;99.90
27797;DHT22;15177;50.844;4.412;2022-07-29T03:06:13;18.80;99.90
27797;DHT22;15177;50.844;4.412;2022-07-29T03:08:42;18.80;99.90
27797;DHT22;15177;50.844;4.412;2022-07-29T03:11:09;18.70;99.90
27797;DHT22;15177;50.844;4.412;2022-07-29T03:13:35;18.70;99.90
27797;DHT22;15177;50.844;4.412;2022-07-29T03:16:02;18.70;99.90
27797;DHT22;15177;50.844;4.412;2022-07-29T03:18:29;18.70;99.90
27797;DHT22;15177;50.844;4.412;2022-07-29T03:20:56;18.60;99.90
27797;DHT22;15177;50.844;4.412;2022-07-29T03:23:23;18.70;99.90
27797;DHT22;15177;50.844;4.412;2022-07-29T03:25:50;18.70;99.90
27797;DHT22;15177;50.844;4.412;2022-07-29T03:28:16;18.70;99.90
27797;DHT22;15177;50.844;4.412;2022-07-29T03:30:41;18.60;99.90
27797;DHT22;15177;50.844;4.412;2022-07-29T03:33:07;18.70;99.90
27797;DHT22;15177;50.844;4.412;2022-07-29T03:35:33;18.60;99.90
27797;DHT22;15177;50.844;4.412;2022-07-29T03:37:59;18.50;99.90
27797;DHT22;15177;50.844;4.412;2022-07-29T03:40:53;18.40;99.90
27797;DHT22;15177;50.844;4.412;2022-07-29T03:43:20;18.40;99.90
27797;DHT22;15177;50.844;4.412;2022-07-29T03:45:50;18.50;99.90
27797;DHT22;15177;50.844;4.412;2022-07-29T03:48:20;18.40;99.90
27797;DHT22;15177;50.844;4.412;2022-07-29T03:50:46;18.30;99.90
27797;DHT22;15177;50.844;4.412;2022-07-29T03:53:14;18.40;99.90
27797;DHT22;15177;50.844;4.412;2022-07-29T03:55:48;18.40;99.90
27797;DHT22;15177;50.844;4.412;2022-07-29T03:58:16;18.30;99.90
27797;DHT22;15177;50.844;4.412;2022-07-29T04:00:43;18.30;99.90
27797;DHT22;15177;50.844;4.412;2022-07-29T04:03:12;18.20;99.90
27797;DHT22;15177;50.844;4.412;2022-07-29T04:05:38;18.30;99.90
27797;DHT22;15177;50.844;4.412;2022-07-29T04:08:06;18.40;99.90
27797;DHT22;15177;50.844;4.412;2022-07-29T04:10:32;18.40;99.90
27797;DHT22;15177;50.844;4.412;2022-07-29T04:12:58;18.50;99.90
27797;DHT22;15177;50.844;4.412;2022-07-29T04:15:24;18.60;99.90
27797;DHT22;15177;50.844;4.412;2022-07-29T04:17:50;18.60;99.90
27797;DHT22;15177;50.844;4.412;2022-07-29T04:20:15;18.50;99.90
27797;DHT22;15177;50.844;4.412;2022-07-29T04:22:41;18.40;99.90
27797;DHT22;15177;50.844;4.412;2022-07-29T04:25:07;18.40;99.90
27797;DHT22;15177;50.844;4.412;2022-07-29T04:27:33;18.30;99.90
27797;DHT22;15177;50.844;4.412;2022-07-29T04:29:59;18.40;99.90
27797;DHT22;15177;50.844;4.412;2022-07-29T04:32:25;18.40;99.90
27797;DHT22;15177;50.844;4.412;2022-07-29T04:34:51;18.40;99.90
27797;DHT22;15177;50.844;4.412;2022-07-29T04:37:18;18.40;99.90
27797;DHT22;15177;50.844;4.412;2022-07-29T04:39:44;18.30;99.90
27797;DHT22;15177;50.844;4.412;2022-07-29T04:42:10;18.30;99.90
27797;DHT22;15177;50.844;4.412;2022-07-29T04:44:36;18.40;99.90
27797;DHT22;15177;50.844;4.412;2022-07-29T04:47:02;18.40;99.90
27797;DHT22;15177;50.844;4.412;2022-07-29T04:49:29;18.50;99.90
27797;DHT22;15177;50.844;4.412;2022-07-29T04:51:55;18.40;99.90
27797;DHT22;15177;50.844;4.412;2022-07-29T04:54:20;18.50;99.90
27797;DHT22;15177;50.844;4.412;2022-07-29T04:56:47;18.40;99.90
27797;DHT22;15177;50.844;4.412;2022-07-29T04:59:13;18.40;99.90
27797;DHT22;15177;50.844;4.412;2022-07-29T05:01:38;18.40;99.90
27797;DHT22;15177;50.844;4.412;2022-07-29T05:04:04;18.40;99.90
27797;DHT22;15177;50.844;4.412;2022-07-29T05:06:31;18.50;99.90
27797;DHT22;15177;50.844;4.412;2022-07-29T05:09:00;18.50;99.90
27797;DHT22;15177;50.844;4.412;2022-07-29T05:11:26;18.50;99.90
27797;DHT22;15177;50.844;4.412;2022-07-29T05:13:52;18.50;99.90
27797;DHT22;15177;50.844;4.412;2022-07-29T05:16:17;18.60;99.90
27797;DHT22;15177;50.844;4.412;2022-07-29T05:18:43;18.70;99.90
27797;DHT22;15177;50.844;4.412;2022-07-29T05:21:09;18.60;99.90
27797;DHT22;15177;50.844;4.412;2022-07-29T05:23:36;18.60;99.90
27797;DHT22;15177;50.844;4.412;2022-07-29T05:26:03;18.60;99.90
27797;DHT22;15177;50.844;4.412;2022-07-29T05:28:33;18.70;99.90
27797;DHT22;15177;50.844;4.412;2022-07-29T05:31:04;18.90;99.90
27797;DHT22;15177;50.844;4.412;2022-07-29T05:33:30;19.10;99.90
27797;DHT22;15177;50.844;4.412;2022-07-29T05:35:55;19.50;99.90
27797;DHT22;15177;50.844;4.412;2022-07-29T05:38:21;20.00;99.90
27797;DHT22;15177;50.844;4.412;2022-07-29T05:40:46;20.40;99.90
27797;DHT22;15177;50.844;4.412;2022-07-29T05:43:12;20.90;99.90
27797;DHT22;15177;50.844;4.412;2022-07-29T05:45:39;21.10;99.70
27797;DHT22;15177;50.844;4.412;2022-07-29T05:48:04;21.10;99.30
27797;DHT22;15177;50.844;4.412;2022-07-29T05:50:31;21.00;99.60
27797;DHT22;15177;50.844;4.412;2022-07-29T05:52:57;20.70;99.90
27797;DHT22;15177;50.844;4.412;2022-07-29T05:55:23;20.40;99.90
27797;DHT22;15177;50.844;4.412;2022-07-29T05:57:48;20.60;99.90
27797;DHT22;15177;50.844;4.412;2022-07-29T06:00:14;20.60;99.90
27797;DHT22;15177;50.844;4.412;2022-07-29T06:02:41;21.00;99.90
27797;DHT22;15177;50.844;4.412;2022-07-29T06:05:08;21.70;98.30
27797;DHT22;15177;50.844;4.412;2022-07-29T06:07:34;22.20;96.80
27797;DHT22;15177;50.844;4.412;2022-07-29T06:10:00;23.20;95.10
27797;DHT22;15177;50.844;4.412;2022-07-29T06:12:25;24.10;92.00
27797;DHT22;15177;50.844;4.412;2022-07-29T06:14:51;25.10;87.40
27797;DHT22;15177;50.844;4.412;2022-07-29T06:17:17;26.20;81.90
27797;DHT22;15177;50.844;4.412;2022-07-29T06:19:42;27.30;76.70
27797;DHT22;15177;50.844;4.412;2022-07-29T06:22:08;28.10;72.10
27797;DHT22;15177;50.844;4.412;2022-07-29T06:24:36;28.70;68.30
27797;DHT22;15177;50.844;4.412;2022-07-29T06:27:02;29.10;66.40
27797;DHT22;15177;50.844;4.412;2022-07-29T06:29:28;29.40;64.50
27797;DHT22;15177;50.844;4.412;2022-07-29T06:31:55;29.20;64.00
27797;DHT22;15177;50.844;4.412;2022-07-29T06:34:20;29.50;64.00
27797;DHT22;15177;50.844;4.412;2022-07-29T06:36:46;29.90;62.60
27797;DHT22;15177;50.844;4.412;2022-07-29T06:39:12;30.50;61.40
27797;DHT22;15177;50.844;4.412;2022-07-29T06:41:37;30.60;59.90
27797;DHT22;15177;50.844;4.412;2022-07-29T06:44:03;30.90;59.80
27797;DHT22;15177;50.844;4.412;2022-07-29T06:46:30;31.00;58.90
27797;DHT22;15177;50.844;4.412;2022-07-29T06:48:55;30.70;59.20
27797;DHT22;15177;50.844;4.412;2022-07-29T06:51:22;30.70;59.30
27797;DHT22;15177;50.844;4.412;2022-07-29T06:53:48;30.90;59.20
27797;DHT22;15177;50.844;4.412;2022-07-29T06:56:14;31.50;58.50
27797;DHT22;15177;50.844;4.412;2022-07-29T06:58:39;31.90;57.10
27797;DHT22;15177;50.844;4.412;2022-07-29T07:01:06;32.10;56.60
27797;DHT22;15177;50.844;4.412;2022-07-29T07:03:32;32.10;56.20
27797;DHT22;15177;50.844;4.412;2022-07-29T07:05:58;32.00;56.10
27797;DHT22;15177;50.844;4.412;2022-07-29T07:08:24;31.80;56.30
27797;DHT22;15177;50.844;4.412;2022-07-29T07:10:51;31.30;57.10
27797;DHT22;15177;50.844;4.412;2022-07-29T07:13:16;30.60;58.10
27797;DHT22;15177;50.844;4.412;2022-07-29T07:15:43;29.60;59.70
27797;DHT22;15177;50.844;4.412;2022-07-29T07:18:10;28.60;62.10
27797;DHT22;15177;50.844;4.412;2022-07-29T07:20:36;27.80;64.30
27797;DHT22;15177;50.844;4.412;2022-07-29T07:23:03;27.40;65.70
27797;DHT22;15177;50.844;4.412;2022-07-29T07:25:29;27.10;66.70
27797;DHT22;15177;50.844;4.412;2022-07-29T07:27:55;26.80;67.30
27797;DHT22;15177;50.844;4.412;2022-07-29T07:30:21;26.90;67.70
27797;DHT22;15177;50.844;4.412;2022-07-29T07:32:46;27.40;66.90
27797;DHT22;15177;50.844;4.412;2022-07-29T07:35:13;27.50;66.20
27797;DHT22;15177;50.844;4.412;2022-07-29T07:37:39;27.20;66.90
27797;DHT22;15177;50.844;4.412;2022-07-29T07:40:07;27.50;66.70
27797;DHT22;15177;50.844;4.412;2022-07-29T07:42:32;28.00;66.50
27797;DHT22;15177;50.844;4.412;2022-07-29T07:44:59;28.70;64.20
27797;DHT22;15177;50.844;4.412;2022-07-29T07:47:25;28.70;63.50
27797;DHT22;15177;50.844;4.412;2022-07-29T07:49:52;29.10;63.40
27797;DHT22;15177;50.844;4.412;2022-07-29T07:52:20;29.80;61.10
27797;DHT22;15177;50.844;4.412;2022-07-29T07:54:46;30.10;60.00
27797;DHT22;15177;50.844;4.412;2022-07-29T07:57:12;30.50;59.40
27797;DHT22;15177;50.844;4.412;2022-07-29T07:59:39;30.20;59.60
27797;DHT22;15177;50.844;4.412;2022-07-29T08:02:05;30.80;59.50
27797;DHT22;15177;50.844;4.412;2022-07-29T08:04:30;31.40;58.10
27797;DHT22;15177;50.844;4.412;2022-07-29T08:06:57;31.70;57.10
27797;DHT22;15177;50.844;4.412;2022-07-29T08:09:24;32.30;56.40
27797;DHT22;15177;50.844;4.412;2022-07-29T08:11:51;32.80;55.40
27797;DHT22;15177;50.844;4.412;2022-07-29T08:14:18;33.20;54.50
27797;DHT22;15177;50.844;4.412;2022-07-29T08:16:43;33.40;54.20
27797;DHT22;15177;50.844;4.412;2022-07-29T08:19:09;33.80;54.00
27797;DHT22;15177;50.844;4.412;2022-07-29T08:21:36;34.50;52.80
27797;DHT22;15177;50.844;4.412;2022-07-29T08:24:02;34.70;52.10
27797;DHT22;15177;50.844;4.412;2022-07-29T08:26:40;35.30;51.50
27797;DHT22;15177;50.844;4.412;2022-07-29T08:29:06;35.50;50.20
27797;DHT22;15177;50.844;4.412;2022-07-29T08:31:32;35.90;50.00
27797;DHT22;15177;50.844;4.412;2022-07-29T08:33:57;36.80;49.30
27797;DHT22;15177;50.844;4.412;2022-07-29T08:36:25;36.60;48.80
27797;DHT22;15177;50.844;4.412;2022-07-29T08:38:51;37.20;48.30
27797;DHT22;15177;50.844;4.412;2022-07-29T08:41:18;37.60;47.10
27797;DHT22;15177;50.844;4.412;2022-07-29T08:43:44;37.60;46.60
27797;DHT22;15177;50.844;4.412;2022-07-29T08:46:10;37.20;47.00
27797;DHT22;15177;50.844;4.412;2022-07-29T08:48:37;37.00;47.60
27797;DHT22;15177;50.844;4.412;2022-07-29T08:51:07;37.70;46.80
27797;DHT22;15177;50.844;4.412;2022-07-29T08:53:34;38.30;46.00
27797;DHT22;15177;50.844;4.412;2022-07-29T08:56:00;38.50;45.30
27797;DHT22;15177;50.844;4.412;2022-07-29T08:58:31;39.00;44.50
27797;DHT22;15177;50.844;4.412;2022-07-29T09:01:01;38.70;45.00
27797;DHT22;15177;50.844;4.412;2022-07-29T09:03:32;38.40;45.00
27797;DHT22;15177;50.844;4.412;2022-07-29T09:06:00;38.40;44.60
27797;DHT22;15177;50.844;4.412;2022-07-29T09:08:27;38.90;44.30
27797;DHT22;15177;50.844;4.412;2022-07-29T09:10:54;39.40;43.90
27797;DHT22;15177;50.844;4.412;2022-07-29T09:13:21;38.70;42.60
27797;DHT22;15177;50.844;4.412;2022-07-29T09:15:47;38.20;43.90
27797;DHT22;15177;50.844;4.412;2022-07-29T09:18:37;37.10;44.00
27797;DHT22;15177;50.844;4.412;2022-07-29T09:21:05;36.90;45.00
27797;DHT22;15177;50.844;4.412;2022-07-29T09:26:28;37.60;44.10
27797;DHT22;15177;50.844;4.412;2022-07-29T09:28:54;37.20;44.00
27797;DHT22;15177;50.844;4.412;2022-07-29T09:31:32;37.10;44.40
27797;DHT22;15177;50.844;4.412;2022-07-29T09:34:00;37.40;44.10
27797;DHT22;15177;50.844;4.412;2022-07-29T09:36:26;37.70;43.50
27797;DHT22;15177;50.844;4.412;2022-07-29T09:38:59;37.80;43.40
27797;DHT22;15177;50.844;4.412;2022-07-29T09:41:25;38.10;43.20
27797;DHT22;15177;50.844;4.412;2022-07-29T09:43:59;38.40;42.60
27797;DHT22;15177;50.844;4.412;2022-07-29T09:46:25;38.70;42.20
27797;DHT22;15177;50.844;4.412;2022-07-29T09:49:08;38.50;41.90
27797;DHT22;15177;50.844;4.412;2022-07-29T09:51:34;38.60;41.60
27797;DHT22;15177;50.844;4.412;2022-07-29T09:54:00;38.00;41.50
27797;DHT22;15177;50.844;4.412;2022-07-29T09:56:40;37.90;41.60
27797;DHT22;15177;50.844;4.412;2022-07-29T09:59:07;37.80;41.80
27797;DHT22;15177;50.844;4.412;2022-07-29T10:01:32;37.20;42.00
27797;DHT22;15177;50.844;4.412;2022-07-29T10:03:58;36.80;43.20
27797;DHT22;15177;50.844;4.412;2022-07-29T10:06:24;36.70;43.00
27797;DHT22;15177;50.844;4.412;2022-07-29T10:08:49;36.60;43.90
27797;DHT22;15177;50.844;4.412;2022-07-29T10:11:17;36.60;44.00
27797;DHT22;15177;50.844;4.412;2022-07-29T10:13:44;36.20;44.60
27797;DHT22;15177;50.844;4.412;2022-07-29T10:16:10;36.40;44.50
27797;DHT22;15177;50.844;4.412;2022-07-29T10:18:38;37.00;43.40
27797;DHT22;15177;50.844;4.412;2022-07-29T10:21:06;37.60;42.60
27797;DHT22;15177;50.844;4.412;2022-07-29T10:23:37;37.90;42.40
27797;DHT22;15177;50.844;4.412;2022-07-29T10:26:04;37.90;42.30
27797;DHT22;15177;50.844;4.412;2022-07-29T10:28:32;37.60;43.00
27797;DHT22;15177;50.844;4.412;2022-07-29T10:31:05;38.00;42.70
27797;DHT22;15177;50.844;4.412;2022-07-29T10:44:25;37.00;43.00
27797;DHT22;15177;50.844;4.412;2022-07-29T10:46:53;37.40;42.20
27797;DHT22;15177;50.844;4.412;2022-07-29T10:49:24;37.60;41.70
27797;DHT22;15177;50.844;4.412;2022-07-29T10:54:45;37.30;42.00
27797;DHT22;15177;50.844;4.412;2022-07-29T10:57:19;36.60;42.70
27797;DHT22;15177;50.844;4.412;2022-07-29T10:59:50;36.60;42.90
27797;DHT22;15177;50.844;4.412;2022-07-29T11:05:02;37.30;41.50
27797;DHT22;15177;50.844;4.412;2022-07-29T11:07:29;37.40;41.40
27797;DHT22;15177;50.844;4.412;2022-07-29T11:15:26;36.40;41.30
27797;DHT22;15177;50.844;4.412;2022-07-29T11:26:20;35.80;41.10
27797;DHT22;15177;50.844;4.412;2022-07-29T11:28:59;35.90;41.80
27797;DHT22;15177;50.844;4.412;2022-07-29T11:31:40;35.70;41.90
27797;DHT22;15177;50.844;4.412;2022-07-29T11:39:37;34.90;43.60
27797;DHT22;15177;50.844;4.412;2022-07-29T11:45:00;33.40;45.10
27797;DHT22;15177;50.844;4.412;2022-07-29T11:47:28;32.70;45.90
27797;DHT22;15177;50.844;4.412;2022-07-29T11:49:55;32.20;45.80
27797;DHT22;15177;50.844;4.412;2022-07-29T11:52:21;32.20;46.70
27797;DHT22;15177;50.844;4.412;2022-07-29T11:54:48;32.00;46.50
27797;DHT22;15177;50.844;4.412;2022-07-29T11:57:18;31.60;46.50
27797;DHT22;15177;50.844;4.412;2022-07-29T11:59:46;31.40;46.90
27797;DHT22;15177;50.844;4.412;2022-07-29T12:02:13;31.30;47.90
27797;DHT22;15177;50.844;4.412;2022-07-29T12:04:55;31.30;48.20
27797;DHT22;15177;50.844;4.412;2022-07-29T12:07:33;31.20;48.30
27797;DHT22;15177;50.844;4.412;2022-07-29T12:09:59;31.20;48.60
27797;DHT22;15177;50.844;4.412;2022-07-29T12:12:25;31.10;48.60
27797;DHT22;15177;50.844;4.412;2022-07-29T12:14:52;30.90;48.90
27797;DHT22;15177;50.844;4.412;2022-07-29T12:17:31;30.80;49.60
27797;DHT22;15177;50.844;4.412;2022-07-29T12:19:59;30.40;49.70
27797;DHT22;15177;50.844;4.412;2022-07-29T12:22:36;30.50;49.70
27797;DHT22;15177;50.844;4.412;2022-07-29T12:25:04;30.60;49.50
27797;DHT22;15177;50.844;4.412;2022-07-29T12:27:31;30.50;49.60
27797;DHT22;15177;50.844;4.412;2022-07-29T12:30:10;30.50;49.40
27797;DHT22;15177;50.844;4.412;2022-07-29T12:32:38;30.40;49.70
27797;DHT22;15177;50.844;4.412;2022-07-29T12:35:06;30.50;49.40
27797;DHT22;15177;50.844;4.412;2022-07-29T12:37:34;30.50;49.50
27797;DHT22;15177;50.844;4.412;2022-07-29T12:40:01;30.50;49.00
27797;DHT22;15177;50.844;4.412;2022-07-29T12:42:27;30.40;49.30
27797;DHT22;15177;50.844;4.412;2022-07-29T12:44:53;30.30;50.10
27797;DHT22;15177;50.844;4.412;2022-07-29T12:47:19;30.30;50.40
27797;DHT22;15177;50.844;4.412;2022-07-29T12:49:46;30.10;50.40
27797;DHT22;15177;50.844;4.412;2022-07-29T12:52:27;30.30;49.90
27797;DHT22;15177;50.844;4.412;2022-07-29T12:54:53;30.50;49.40
27797;DHT22;15177;50.844;4.412;2022-07-29T12:57:19;30.50;48.50
27797;DHT22;15177;50.844;4.412;2022-07-29T12:59:45;30.40;49.00
27797;DHT22;15177;50.844;4.412;2022-07-29T13:02:23;30.10;49.20
27797;DHT22;15177;50.844;4.412;2022-07-29T13:05:01;30.00;49.20
27797;DHT22;15177;50.844;4.412;2022-07-29T13:07:29;30.10;49.00
27797;DHT22;15177;50.844;4.412;2022-07-29T13:15:32;29.80;50.20
27797;DHT22;15177;50.844;4.412;2022-07-29T13:17:58;29.80;50.20
27797;DHT22;15177;50.844;4.412;2022-07-29T13:20:27;29.80;50.00
27797;DHT22;15177;50.844;4.412;2022-07-29T13:22:55;29.70;50.20
27797;DHT22;15177;50.844;4.412;2022-07-29T13:25:29;29.70;50.30
27797;DHT22;15177;50.844;4.412;2022-07-29T13:27:56;29.60;50.10
27797;DHT22;15177;50.844;4.412;2022-07-29T13:30:22;29.60;50.60
27797;DHT22;15177;50.844;4.412;2022-07-29T13:32:48;29.50;50.60
27797;DHT22;15177;50.844;4.412;2022-07-29T13:35:14;29.50;50.80
27797;DHT22;15177;50.844;4.412;2022-07-29T13:37:40;29.50;50.70
27797;DHT22;15177;50.844;4.412;2022-07-29T13:40:08;29.50;50.60
27797;DHT22;15177;50.844;4.412;2022-07-29T13:42:34;29.50;50.30
27797;DHT22;15177;50.844;4.412;2022-07-29T13:45:00;29.40;50.70
27797;DHT22;15177;50.844;4.412;2022-07-29T13:47:26;29.40;50.50
27797;DHT22;15177;50.844;4.412;2022-07-29T13:49:52;29.50;50.60
27797;DHT22;15177;50.844;4.412;2022-07-29T13:52:19;29.50;50.10
27797;DHT22;15177;50.844;4.412;2022-07-29T13:54:45;29.50;50.10
27797;DHT22;15177;50.844;4.412;2022-07-29T13:57:11;29.40;50.70
27797;DHT22;15177;50.844;4.412;2022-07-29T13:59:38;29.20;51.30
27797;DHT22;15177;50.844;4.412;2022-07-29T14:02:04;29.20;51.30
27797;DHT22;15177;50.844;4.412;2022-07-29T14:04:31;29.20;51.50
27797;DHT22;15177;50.844;4.412;2022-07-29T14:06:56;29.30;51.20
27797;DHT22;15177;50.844;4.412;2022-07-29T14:09:22;29.40;51.00
27797;DHT22;15177;50.844;4.412;2022-07-29T14:11:48;29.30;51.30
27797;DHT22;15177;50.844;4.412;2022-07-29T14:14:16;29.10;50.50
27797;DHT22;15177;50.844;4.412;2022-07-29T14:16:42;29.00;50.90
27797;DHT22;15177;50.844;4.412;2022-07-29T14:19:07;29.00;50.60
27797;DHT22;15177;50.844;4.412;2022-07-29T14:21:33;29.10;50.50
27797;DHT22;15177;50.844;4.412;2022-07-29T14:24:00;28.80;51.00
27797;DHT22;15177;50.844;4.412;2022-07-29T14:26:26;28.80;51.00
27797;DHT22;15177;50.844;4.412;2022-07-29T14:28:51;28.80;51.30
27797;DHT22;15177;50.844;4.412;2022-07-29T14:31:17;28.80;51.10
27797;DHT22;15177;50.844;4.412;2022-07-29T14:33:43;28.80;51.00
27797;DHT22;15177;50.844;4.412;2022-07-29T14:36:08;28.80;51.40
27797;DHT22;15177;50.844;4.412;2022-07-29T14:38:35;28.80;51.30
27797;DHT22;15177;50.844;4.412;2022-07-29T14:41:02;28.80;51.10
27797;DHT22;15177;50.844;4.412;2022-07-29T14:43:28;28.80;51.00
27797;DHT22;15177;50.844;4.412;2022-07-29T14:45:54;28.80;50.70
27797;DHT22;15177;50.844;4.412;2022-07-29T14:48:20;28.80;50.70
27797;DHT22;15177;50.844;4.412;2022-07-29T14:50:45;28.80;50.80
27797;DHT22;15177;50.844;4.412;2022-07-29T14:53:11;28.80;51.00
27797;DHT22;15177;50.844;4.412;2022-07-29T14:55:40;28.80;51.30
27797;DHT22;15177;50.844;4.412;2022-07-29T14:58:07;28.80;51.40
27797;DHT22;15177;50.844;4.412;2022-07-29T15:00:33;28.70;51.80
27797;DHT22;15177;50.844;4.412;2022-07-29T15:03:01;28.60;52.10
27797;DHT22;15177;50.844;4.412;2022-07-29T15:05:26;28.30;52.40
27797;DHT22;15177;50.844;4.412;2022-07-29T15:07:52;28.20;52.90
27797;DHT22;15177;50.844;4.412;2022-07-29T15:10:18;28.20;52.90
27797;DHT22;15177;50.844;4.412;2022-07-29T15:12:45;28.10;52.90
27797;DHT22;15177;50.844;4.412;2022-07-29T15:15:10;28.10;53.30
27797;DHT22;15177;50.844;4.412;2022-07-29T15:17:36;27.90;53.50
27797;DHT22;15177;50.844;4.412;2022-07-29T15:20:02;28.00;53.60
27797;DHT22;15177;50.844;4.412;2022-07-29T15:22:28;27.90;53.80
27797;DHT22;15177;50.844;4.412;2022-07-29T15:24:55;27.80;53.90
27797;DHT22;15177;50.844;4.412;2022-07-29T15:27:22;27.70;53.80
27797;DHT22;15177;50.844;4.412;2022-07-29T15:29:48;27.80;54.10
27797;DHT22;15177;50.844;4.412;2022-07-29T15:32:15;27.80;54.00
27797;DHT22;15177;50.844;4.412;2022-07-29T15:34:41;27.80;54.10
27797;DHT22;15177;50.844;4.412;2022-07-29T15:37:07;27.80;54.10
27797;DHT22;15177;50.844;4.412;2022-07-29T15:39:32;27.90;53.60
27797;DHT22;15177;50.844;4.412;2022-07-29T15:41:59;27.70;53.60
27797;DHT22;15177;50.844;4.412;2022-07-29T15:44:25;27.70;54.00
27797;DHT22;15177;50.844;4.412;2022-07-29T15:46:51;27.60;54.50
27797;DHT22;15177;50.844;4.412;2022-07-29T15:49:29;27.60;54.30
27797;DHT22;15177;50.844;4.412;2022-07-29T15:52:03;27.60;53.90
27797;DHT22;15177;50.844;4.412;2022-07-29T15:54:31;27.70;54.00
27797;DHT22;15177;50.844;4.412;2022-07-29T15:56:57;27.60;53.50
27797;DHT22;15177;50.844;4.412;2022-07-29T15:59:23;27.70;53.10
27797;DHT22;15177;50.844;4.412;2022-07-29T16:01:49;27.70;51.90
27797;DHT22;15177;50.844;4.412;2022-07-29T16:04:15;27.70;52.60
27797;DHT22;15177;50.844;4.412;2022-07-29T16:06:41;27.80;52.70
27797;DHT22;15177;50.844;4.412;2022-07-29T16:09:08;27.70;53.00
27797;DHT22;15177;50.844;4.412;2022-07-29T16:11:33;27.70;53.00
27797;DHT22;15177;50.844;4.412;2022-07-29T16:13:59;27.70;53.20
27797;DHT22;15177;50.844;4.412;2022-07-29T16:16:25;27.80;53.50
27797;DHT22;15177;50.844;4.412;2022-07-29T16:18:50;27.90;53.50
27797;DHT22;15177;50.844;4.412;2022-07-29T16:21:16;27.90;53.40
27797;DHT22;15177;50.844;4.412;2022-07-29T16:23:41;27.80;52.50
27797;DHT22;15177;50.844;4.412;2022-07-29T16:26:07;27.60;52.60
27797;DHT22;15177;50.844;4.412;2022-07-29T16:28:33;27.40;52.90
27797;DHT22;15177;50.844;4.412;2022-07-29T16:30:59;27.30;53.20